Terminal Aerodrome Forecast
Issued by NWS

Current Version | Previous Version | Graphics & Text | Print | Product List | Glossary On
Versions: 1 2 3 4 5 6 7 8 9 10 11 12 13 14 15 16 17 18 19 20 21 22
000
FTUS41 KILN 251125
TAFLUK
TAF
KLUK 251125Z 2512/2612 22003KT 6SM BR FEW035 BKN250
     FM251300 23006KT P6SM BKN250
     FM251800 24007KT P6SM VCTS SCT050CB SCT120 BKN250
     FM252100 29007KT P6SM VCTS SCT040CB BKN120 BKN250
     FM260100 VRB03KT P6SM BKN100 BKN250
     FM260600 00000KT 4SM BR BKN100 BKN250
      TEMPO 2608/2612 2SM BR=

USA.gov is the U.S. government's official web portal to all federal, state and local government web resources and services.